This is the latest recevied weather packets stored in our database for station/object N1IJV-10. If no packets are shown the sender has not sent any weather packets the latest 10 day(s).
| Time | Temp. | Humidity | Pressure | Rain* | Wind** | Luminosity | Snow |
|---|---|---|---|---|---|---|---|
| 1777944769 | 17.78° C | 71% | 998.6 hPa | 0 mm | - | 0 W/m² | - |
| 1777944467 | 17.78° C | 72% | 998.8 hPa | 0 mm | - | 0 W/m² | - |
| 1777944164 | 17.78° C | 73% | 998.8 hPa | 0 mm | - | 0 W/m² | - |
| 1777943859 | 17.78° C | 74% | 999 hPa | 0 mm | - | 0 W/m² | - |
| 1777943557 | 17.78° C | 74% | 998.6 hPa | 0 mm | - | 0 W/m² | - |
| 1777943252 | 17.78° C | 76% | 998.7 hPa | 0 mm | - | 0 W/m² | - |
| 1777942949 | 17.78° C | 77% | 998.4 hPa | 0 mm | - | 0 W/m² | - |
| 1777942646 | 17.78° C | 76% | 998.6 hPa | 0 mm | - | 0 W/m² | - |
| 1777942343 | 17.78° C | 76% | 998.3 hPa | 0 mm | - | 0 W/m² | - |
| 1777942040 | 18.33° C | 76% | 998.6 hPa | 0 mm | - | 0 W/m² | - |
| 1777941736 | 18.33° C | 77% | 998.6 hPa | 0 mm | - | 0 W/m² | - |
| 1777941434 | 18.33° C | 77% | 998.8 hPa | 0 mm | - | 0 W/m² | - |
| 1777941132 | 18.89° C | 75% | 998.6 hPa | 0 mm | - | 1 W/m² | - |
| 1777940827 | 18.89° C | 73% | 997.6 hPa | 0 mm | - | 3 W/m² | - |
| 1777940525 | 19.44° C | 71% | 997.5 hPa | 0 mm | - | 6 W/m² | - |
| 1777940222 | 19.44° C | 69% | 997.4 hPa | 0 mm | - | 10 W/m² | - |
| 1777939920 | 19.44° C | 68% | 997.8 hPa | 0 mm | - | 14 W/m² | - |
| 1777939616 | 19.44° C | 69% | 998.1 hPa | 0 mm | - | 19 W/m² | - |
| 1777939314 | 18.89° C | 73% | 998.6 hPa | 0 mm | - | 30 W/m² | - |
| 1777939010 | 18.33° C | 76% | 998.4 hPa | 0 mm | - | 32 W/m² | - |
| 1777938707 | 17.22° C | 84% | 998.2 hPa | 0 mm | - | 19 W/m² | - |
| 1777938404 | 16.67° C | 87% | 997.8 hPa | 0 mm | - | 55 W/m² | - |
| 1777938102 | 16.11° C | 87% | 997.6 hPa | 0 mm | - | 50 W/m² | - |
| 1777937797 | 16.67° C | 87% | 997.8 hPa | 0 mm | - | 35 W/m² | - |
| 1777937493 | 16.67° C | 84% | 998 hPa | 0 mm | - | 35 W/m² | - |
* Rain latest hour (hover to see other rain measurements)
** Current wind speed in m/s (hover to see current wind gust speed)